Time;durP1;ratioP1;P1;durP2;ratioP2;P2;SDS_P1;SDS_P2;PMS_P1;PMS_P2;Temp;Humidity;BMP_temperature;BMP_pressure;BME280_temperature;BME280_humidity;BME280_pressure;Samples;Min_cycle;Max_cycle;Signal;HPM_P1;HPM_P2
2023/07/17 00:00:51;;;;;;;;;;;;;;;19.59;73.88;96713.13;5106956;28;20198;-73
2023/07/17 00:03:17;;;;;;;;;;;;;;;19.59;73.68;96715.78;5107780;28;19932;-73
2023/07/17 00:05:43;;;;;;;;;;;;;;;19.59;73.64;96716.63;5107270;28;20055;-73
2023/07/17 00:08:10;;;;;;;;;;;;;;;19.60;73.77;96718.19;5107935;28;19950;-73
2023/07/17 00:10:38;;;;;;;;;;;;;;;19.58;72.82;96699.03;5107116;28;19934;-73
2023/07/17 00:13:04;;;;;;;;;;;;;;;19.56;73.27;96695.84;5107056;28;19941;-73
2023/07/17 00:15:30;;;;;;;;;;;;;;;19.56;73.40;96693.19;5107520;28;19961;-73
2023/07/17 00:17:56;;;;;;;;;;;;;;;19.53;74.03;96701.72;5105591;28;20265;-72
2023/07/17 00:20:23;;;;;;;;;;;;;;;19.50;73.59;96690.81;5106620;28;19959;-77
2023/07/17 00:22:49;;;;;;;;;;;;;;;19.48;73.20;96702.50;5106828;28;19945;-77
2023/07/17 00:25:14;;;;;;;;;;;;;;;19.46;72.91;96706.50;5105685;28;20263;-77
2023/07/17 00:27:40;;;;;;;;;;;;;;;19.45;74.03;96704.94;5106262;28;19945;-77
2023/07/17 00:30:06;;;;;;;;;;;;;;;19.45;73.86;96707.59;5106688;28;19936;-77
2023/07/17 00:32:32;;;;;;;;;;;;;;;19.45;73.10;96703.06;5107254;28;19973;-77
2023/07/17 00:34:58;;;;;;;;;;;;;;;19.45;73.70;96700.41;5106961;28;19957;-71
2023/07/17 00:37:24;;;;;;;;;;;;;;;19.44;74.03;96705.97;5107157;28;19964;-71
2023/07/17 00:39:51;;;;;;;;;;;;;;;19.43;74.60;96702.53;5106991;28;20008;-71
2023/07/17 00:42:17;;;;;;;;;;;;;;;19.42;75.10;96703.59;5106559;28;19936;-72
2023/07/17 00:44:43;;;;;;;;;;;;;;;19.37;74.01;96705.47;5107004;28;19936;-71
2023/07/17 00:47:10;;;;;;;;;;;;;;;19.36;74.13;96703.84;5106367;28;20021;-71
2023/07/17 00:49:36;;;;;;;;;;;;;;;19.35;73.85;96699.63;5106351;28;19936;-71
2023/07/17 00:52:04;;;;;;;;;;;;;;;19.37;74.64;96706.25;5088876;28;19939;-71
2023/07/17 00:54:31;;;;;;;;;;;;;;;19.38;75.04;96701.72;5106078;28;19943;-71
2023/07/17 00:56:58;;;;;;;;;;;;;;;19.38;74.51;96699.88;5104984;28;19966;-71
2023/07/17 00:59:24;;;;;;;;;;;;;;;19.35;74.29;96695.09;5106117;28;20112;-71
2023/07/17 01:01:50;;;;;;;;;;;;;;;19.34;73.93;96704.16;5088429;28;19941;-71
2023/07/17 01:04:16;;;;;;;;;;;;;;;19.34;73.31;96700.66;5106053;28;20009;-71
2023/07/17 01:06:42;;;;;;;;;;;;;;;19.32;71.72;96698.31;5105600;28;20122;-70
2023/07/17 01:09:09;;;;;;;;;;;;;;;19.33;72.19;96707.06;5105939;28;19969;-71
2023/07/17 01:11:35;;;;;;;;;;;;;;;19.31;70.90;96694.03;5104804;28;19932;-70
2023/07/17 01:14:01;;;;;;;;;;;;;;;19.27;73.21;96716.91;5105848;28;19948;-76
2023/07/17 01:16:26;;;;;;;;;;;;;;;19.23;73.79;96716.66;5106650;28;19970;-69
2023/07/17 01:18:53;;;;;;;;;;;;;;;19.19;75.85;96715.59;5104360;28;19988;-69
2023/07/17 01:21:20;;;;;;;;;;;;;;;19.16;75.04;96705.47;5105703;28;20238;-70
2023/07/17 01:23:46;;;;;;;;;;;;;;;19.14;77.06;96717.44;5106471;28;19933;-70
2023/07/17 01:26:16;;;;;;;;;;;;;;;19.11;78.12;96710.81;5106142;28;19935;-69
2023/07/17 01:28:43;;;;;;;;;;;;;;;19.09;78.55;96712.94;5105537;28;19945;-70
2023/07/17 01:31:09;;;;;;;;;;;;;;;19.05;79.97;96709.22;5105476;28;20004;-71
2023/07/17 01:33:35;;;;;;;;;;;;;;;19.03;80.21;96711.34;5106265;28;19935;-72
2023/07/17 01:36:01;;;;;;;;;;;;;;;18.97;81.37;96715.03;5105428;28;19996;-72
2023/07/17 01:38:27;;;;;;;;;;;;;;;18.93;80.66;96719.28;5088096;28;19937;-72
2023/07/17 01:40:53;;;;;;;;;;;;;;;18.91;81.99;96724.88;5104440;28;19985;-72
2023/07/17 01:43:19;;;;;;;;;;;;;;;18.90;81.62;96719.81;5104236;28;19946;-72
2023/07/17 01:45:44;;;;;;;;;;;;;;;18.90;81.67;96719.81;5087133;28;19941;-72
2023/07/17 01:48:10;;;;;;;;;;;;;;;18.89;80.94;96718.22;5087963;28;19947;-70
2023/07/17 01:50:36;;;;;;;;;;;;;;;18.86;81.04;96712.38;5105685;28;19941;-74
2023/07/17 01:53:02;;;;;;;;;;;;;;;18.84;81.63;96713.72;5105054;28;19965;-73
2023/07/17 01:55:28;;;;;;;;;;;;;;;18.83;81.91;96712.88;5104265;28;19934;-73
2023/07/17 01:57:57;;;;;;;;;;;;;;;18.81;82.02;96712.34;5104923;28;20001;-73
2023/07/17 02:00:23;;;;;;;;;;;;;;;18.82;81.64;96710.50;5104895;28;20101;-74
2023/07/17 02:02:49;;;;;;;;;;;;;;;18.80;81.74;96724.06;5105230;28;19948;-73
2023/07/17 02:05:15;;;;;;;;;;;;;;;18.78;81.49;96723.53;5104834;28;19938;-74
2023/07/17 02:07:41;;;;;;;;;;;;;;;18.79;81.78;96724.31;5105065;28;20128;-72
2023/07/17 02:10:07;;;;;;;;;;;;;;;18.79;82.09;96721.66;5104054;28;19936;-72
2023/07/17 02:12:33;;;;;;;;;;;;;;;18.79;81.99;96725.13;5105279;28;19937;-71
2023/07/17 02:14:59;;;;;;;;;;;;;;;18.78;82.52;96728.84;5104744;28;19951;-71
2023/07/17 02:17:24;;;;;;;;;;;;;;;18.77;81.78;96729.88;5104553;28;19990;-72
2023/07/17 02:19:50;;;;;;;;;;;;;;;18.75;82.37;96717.91;5105357;28;20181;-73
2023/07/17 02:22:16;;;;;;;;;;;;;;;18.72;82.59;96719.22;5105190;28;19961;-72
2023/07/17 02:24:42;;;;;;;;;;;;;;;18.69;82.85;96727.75;5104657;28;20128;-73
2023/07/17 02:27:08;;;;;;;;;;;;;;;18.69;82.96;96724.25;5104293;28;20203;-71
2023/07/17 02:29:34;;;;;;;;;;;;;;;18.65;84.03;96730.13;5104771;28;19942;-71
2023/07/17 02:32:00;;;;;;;;;;;;;;;18.61;83.98;96718.41;5105007;28;19929;-70
2023/07/17 02:34:26;;;;;;;;;;;;;;;18.59;83.86;96731.16;5105250;28;19937;-69
2023/07/17 02:36:52;;;;;;;;;;;;;;;18.57;83.11;96725.31;5103615;28;19934;-70
2023/07/17 02:39:18;;;;;;;;;;;;;;;18.54;83.37;96731.16;5104883;28;20236;-70
2023/07/17 02:41:44;;;;;;;;;;;;;;;18.51;83.08;96730.88;5104298;28;19985;-70
2023/07/17 02:44:10;;;;;;;;;;;;;;;18.48;83.85;96728.72;5104888;28;19936;-69
2023/07/17 02:46:35;;;;;;;;;;;;;;;18.48;83.62;96740.16;5103227;28;19944;-70
2023/07/17 02:49:01;;;;;;;;;;;;;;;18.46;83.86;96748.38;5104794;28;19936;-69
2023/07/17 02:51:27;;;;;;;;;;;;;;;18.45;83.06;96751.28;5105098;28;19943;-69
2023/07/17 02:53:53;;;;;;;;;;;;;;;18.43;83.01;96750.75;5103163;28;19941;-70
2023/07/17 02:56:19;;;;;;;;;;;;;;;18.41;83.29;96755.53;5104164;28;19957;-70
2023/07/17 02:58:48;;;;;;;;;;;;;;;18.38;82.51;96753.41;5103690;28;19946;-69
2023/07/17 03:01:14;;;;;;;;;;;;;;;18.34;82.39;96761.09;5104034;28;19953;-69
2023/07/17 03:03:40;;;;;;;;;;;;;;;18.30;82.34;96764.53;5104695;28;19975;-70
2023/07/17 03:06:06;;;;;;;;;;;;;;;18.28;83.05;96772.75;5104146;28;19942;-71
2023/07/17 03:08:32;;;;;;;;;;;;;;;18.27;82.53;96773.81;5102975;28;19969;-72
2023/07/17 03:11:01;;;;;;;;;;;;;;;18.26;82.59;96773.00;5104871;28;19942;-73
2023/07/17 03:13:27;;;;;;;;;;;;;;;18.25;82.95;96774.06;5104602;28;19939;-72
2023/07/17 03:15:55;;;;;;;;;;;;;;;18.26;83.28;96782.81;5105270;28;19988;-72
2023/07/17 03:18:21;;;;;;;;;;;;;;;18.24;82.03;96767.13;5107934;28;19967;-72
2023/07/17 03:20:46;;;;;;;;;;;;;;;18.25;82.69;96779.38;5108781;28;19952;-71
2023/07/17 03:23:12;;;;;;;;;;;;;;;18.26;82.60;96780.97;5108563;28;19940;-71
2023/07/17 03:25:40;;;;;;;;;;;;;;;18.26;82.95;96772.19;5108001;28;19957;-71
2023/07/17 03:28:06;;;;;;;;;;;;;;;18.25;82.53;96773.28;5108657;28;19935;-71
2023/07/17 03:30:32;;;;;;;;;;;;;;;18.25;83.63;96786.53;5108073;28;20230;-71
2023/07/17 03:32:58;;;;;;;;;;;;;;;18.25;83.64;96781.22;5107860;28;19941;-71
2023/07/17 03:35:24;;;;;;;;;;;;;;;18.25;84.66;96781.22;5108535;28;19943;-71
2023/07/17 03:37:49;;;;;;;;;;;;;;;18.26;83.45;96766.88;5107715;28;19943;-71
2023/07/17 03:40:15;;;;;;;;;;;;;;;18.25;83.85;96768.75;5108164;28;20037;-70
2023/07/17 03:42:41;;;;;;;;;;;;;;;18.27;83.80;96779.13;5108409;28;20227;-72
2023/07/17 03:45:07;;;;;;;;;;;;;;;18.27;84.47;96781.78;5107057;28;20235;-72
2023/07/17 03:47:33;;;;;;;;;;;;;;;18.26;84.19;96788.91;5108075;28;19933;-72
2023/07/17 03:49:59;;;;;;;;;;;;;;;18.25;83.94;96781.22;5107992;28;19934;-72
2023/07/17 03:52:24;;;;;;;;;;;;;;;18.24;83.74;96785.72;5107443;28;19938;-72
2023/07/17 03:54:50;;;;;;;;;;;;;;;18.24;84.10;96793.69;5107942;28;19963;-72
2023/07/17 03:57:16;;;;;;;;;;;;;;;18.21;84.74;96796.09;5107801;28;19956;-74
2023/07/17 03:59:47;;;;;;;;;;;;;;;18.20;84.75;96802.44;5107249;28;19951;-73
2023/07/17 04:02:12;;;;;;;;;;;;;;;18.15;85.48;96802.41;5108067;28;19945;-73
2023/07/17 04:04:38;;;;;;;;;;;;;;;18.12;84.97;96795.78;5107750;28;19936;-73
2023/07/17 04:07:04;;;;;;;;;;;;;;;18.08;84.75;96800.00;5107173;28;19931;-73
2023/07/17 04:09:30;;;;;;;;;;;;;;;18.05;84.92;96809.25;5107150;28;20166;-73
2023/07/17 04:11:56;;;;;;;;;;;;;;;18.01;85.37;96800.19;5107079;28;19938;-74
2023/07/17 04:14:22;;;;;;;;;;;;;;;17.97;85.58;96807.06;5105831;28;20282;-73
2023/07/17 04:16:47;;;;;;;;;;;;;;;17.95;85.84;96809.19;5105893;28;19961;-72
2023/07/17 04:19:13;;;;;;;;;;;;;;;17.93;86.03;96813.16;5089750;28;19965;-73
2023/07/17 04:21:39;;;;;;;;;;;;;;;17.92;86.68;96815.00;5105758;28;20022;-74
2023/07/17 04:24:05;;;;;;;;;;;;;;;17.90;87.22;96816.34;5106792;28;20031;-73
2023/07/17 04:26:31;;;;;;;;;;;;;;;17.90;87.31;96817.13;5107419;28;19939;-73
2023/07/17 04:28:57;;;;;;;;;;;;;;;17.91;88.01;96821.41;5105588;28;19935;-73
2023/07/17 04:31:23;;;;;;;;;;;;;;;17.93;88.84;96829.06;5105657;28;20008;-74
2023/07/17 04:33:48;;;;;;;;;;;;;;;17.94;88.50;96830.69;5107506;28;19938;-70
2023/07/17 04:36:14;;;;;;;;;;;;;;;17.95;87.80;96830.41;5107111;28;19934;-73
2023/07/17 04:38:40;;;;;;;;;;;;;;;17.94;87.56;96822.72;5107150;28;19932;-72
2023/07/17 04:41:06;;;;;;;;;;;;;;;17.93;88.00;96815.81;5106446;28;20000;-71
2023/07/17 04:43:32;;;;;;;;;;;;;;;17.93;89.22;96832.56;5106502;28;19944;-71
2023/07/17 04:45:57;;;;;;;;;;;;;;;17.94;88.60;96820.06;5106933;28;19933;-72
2023/07/17 04:48:25;;;;;;;;;;;;;;;17.93;88.90;96829.91;5106937;28;19943;-72
2023/07/17 04:50:52;;;;;;;;;;;;;;;17.94;88.85;96825.38;5107100;28;20074;-71
2023/07/17 04:53:18;;;;;;;;;;;;;;;17.94;87.97;96825.38;5106318;28;19937;-70
2023/07/17 04:55:44;;;;;;;;;;;;;;;17.97;88.45;96827.50;5106715;28;19928;-71
2023/07/17 04:58:10;;;;;;;;;;;;;;;17.96;88.54;96826.72;5105902;28;19942;-71
2023/07/17 05:00:36;;;;;;;;;;;;;;;17.96;87.53;96820.63;5106056;28;19951;-71
2023/07/17 05:03:02;;;;;;;;;;;;;;;17.95;87.87;96826.97;5106910;28;19935;-71
2023/07/17 05:05:28;;;;;;;;;;;;;;;17.96;88.34;96828.59;5088023;28;19932;-71
2023/07/17 05:07:54;;;;;;;;;;;;;;;17.99;87.96;96826.19;5106778;28;20198;-71
2023/07/17 05:10:20;;;;;;;;;;;;;;;18.02;87.44;96827.56;5106487;28;19949;-71
2023/07/17 05:12:45;;;;;;;;;;;;;;;18.04;87.72;96822.78;5106770;28;20160;-71
2023/07/17 05:15:11;;;;;;;;;;;;;;;18.09;87.68;96824.69;5106689;28;19945;-73
2023/07/17 05:17:37;;;;;;;;;;;;;;;18.12;87.61;96829.47;5087643;28;19972;-75
2023/07/17 05:20:06;;;;;;;;;;;;;;;18.18;87.64;96833.75;5106182;28;19961;-73
2023/07/17 05:22:32;;;;;;;;;;;;;;;18.23;87.57;96837.25;5087642;28;19946;-73
2023/07/17 05:24:58;;;;;;;;;;;;;;;18.28;88.08;96838.31;5105655;28;19979;-74
2023/07/17 05:27:24;;;;;;;;;;;;;;;18.32;87.34;96839.41;5106330;28;20214;-74
2023/07/17 05:29:50;;;;;;;;;;;;;;;18.34;88.86;96848.72;5104428;28;19935;-77
2023/07/17 05:32:16;;;;;;;;;;;;;;;18.34;87.19;96845.25;5104857;28;19951;-73
2023/07/17 05:34:41;;;;;;;;;;;;;;;18.34;86.54;96838.09;5088115;28;19938;-74
2023/07/17 05:37:08;;;;;;;;;;;;;;;18.37;86.51;96840.25;5105397;28;19939;-73
2023/07/17 05:39:33;;;;;;;;;;;;;;;18.44;86.09;96837.34;5104978;28;20126;-73
2023/07/17 05:41:59;;;;;;;;;;;;;;;18.47;86.47;96842.13;5104135;28;20012;-74
2023/07/17 05:44:25;;;;;;;;;;;;;;;18.48;85.38;96834.94;5105320;28;19954;-73
2023/07/17 05:46:51;;;;;;;;;;;;;;;18.56;84.70;96834.47;5105767;28;19961;-72
2023/07/17 05:49:17;;;;;;;;;;;;;;;18.82;84.21;96820.25;5087990;28;20262;-71
2023/07/17 05:51:42;;;;;;;;;;;;;;;19.18;82.06;96812.34;5105145;28;20151;-72
2023/07/17 05:54:08;;;;;;;;;;;;;;;19.55;81.57;96813.16;5104532;28;19939;-72
2023/07/17 05:56:34;;;;;;;;;;;;;;;19.85;76.28;96786.56;5104293;28;19957;-72
2023/07/17 05:59:00;;;;;;;;;;;;;;;20.08;77.52;96785.19;5105026;28;19946;-72
2023/07/17 06:01:26;;;;;;;;;;;;;;;20.39;78.67;96806.41;5104924;28;19949;-72
2023/07/17 06:03:52;;;;;;;;;;;;;;;20.70;77.65;96790.31;5105510;28;19959;-73
2023/07/17 06:06:18;;;;;;;;;;;;;;;21.03;74.75;96780.78;5104897;28;20248;-72
2023/07/17 06:08:44;;;;;;;;;;;;;;;21.32;72.81;96765.94;5103794;28;19934;-72
2023/07/17 06:11:10;;;;;;;;;;;;;;;21.53;71.97;96762.06;5104814;28;19940;-72
2023/07/17 06:13:35;;;;;;;;;;;;;;;21.82;71.74;96764.72;5104393;28;19967;-72
2023/07/17 06:16:02;;;;;;;;;;;;;;;22.03;68.75;96738.59;5104167;28;19939;-72
2023/07/17 06:18:28;;;;;;;;;;;;;;;22.26;68.14;96752.28;5103468;28;19966;-72
2023/07/17 06:20:54;;;;;;;;;;;;;;;22.33;66.51;96739.34;5104170;28;20171;-75
2023/07/17 06:23:20;;;;;;;;;;;;;;;22.39;64.25;96727.53;5087453;28;20269;-72
2023/07/17 06:25:46;;;;;;;;;;;;;;;22.50;65.70;96747.66;5105132;28;19929;-71
2023/07/17 06:28:11;;;;;;;;;;;;;;;22.64;63.38;96741.63;5086594;28;19945;-74
2023/07/17 06:30:37;;;;;;;;;;;;;;;22.75;63.42;96769.81;5104200;28;19949;-74
2023/07/17 06:33:04;;;;;;;;;;;;;;;22.85;62.33;96780.38;5104476;28;19942;-74
2023/07/17 06:35:30;;;;;;;;;;;;;;;22.98;61.99;96788.75;5104489;28;19939;-74
2023/07/17 06:37:55;;;;;;;;;;;;;;;23.01;61.07;96777.50;5103911;28;19988;-75
2023/07/17 06:40:21;;;;;;;;;;;;;;;23.03;61.42;96794.06;5104855;28;19978;-75
2023/07/17 06:42:47;;;;;;;;;;;;;;;23.02;57.58;96779.09;5104411;28;19939;-70
2023/07/17 06:45:13;;;;;;;;;;;;;;;23.08;60.76;96794.00;5103279;28;19941;-72
2023/07/17 06:47:39;;;;;;;;;;;;;;;23.16;58.90;96788.00;5103945;28;19935;-75
2023/07/17 06:50:05;;;;;;;;;;;;;;;23.20;58.83;96788.97;5103918;28;19946;-74
2023/07/17 06:52:31;;;;;;;;;;;;;;;23.37;60.92;96799.19;5104129;28;19932;-74
2023/07/17 06:54:57;;;;;;;;;;;;;;;23.58;57.76;96785.44;5104149;28;20156;-74
2023/07/17 06:57:23;;;;;;;;;;;;;;;23.74;58.39;96786.78;5104177;28;20158;-74
2023/07/17 06:59:49;;;;;;;;;;;;;;;23.93;58.69;96788.66;5104106;28;20227;-74
2023/07/17 07:02:15;;;;;;;;;;;;;;;24.11;56.28;96782.41;5104204;28;20107;-72
2023/07/17 07:04:40;;;;;;;;;;;;;;;24.27;54.83;96782.91;5103071;28;19942;-74
2023/07/17 07:07:06;;;;;;;;;;;;;;;24.38;53.87;96783.50;5103014;28;19937;-74
2023/07/17 07:09:32;;;;;;;;;;;;;;;24.39;53.37;96791.25;5104568;28;20006;-74
2023/07/17 07:11:58;;;;;;;;;;;;;;;24.45;52.27;96784.69;5104648;28;19938;-74
2023/07/17 07:14:24;;;;;;;;;;;;;;;24.48;52.92;96792.16;5104078;28;20016;-74
2023/07/17 07:16:50;;;;;;;;;;;;;;;24.44;52.16;96796.53;5102724;28;19936;-74
2023/07/17 07:19:16;;;;;;;;;;;;;;;24.45;51.55;96805.34;5104535;28;20118;-74
2023/07/17 07:21:42;;;;;;;;;;;;;;;24.46;54.08;96807.75;5104651;28;19994;-73
2023/07/17 07:24:08;;;;;;;;;;;;;;;24.59;51.09;96813.41;5103915;28;19945;-72
2023/07/17 07:26:34;;;;;;;;;;;;;;;24.67;51.78;96799.28;5103530;28;19945;-71
2023/07/17 07:29:00;;;;;;;;;;;;;;;24.63;49.72;96809.03;5103831;28;19986;-72
2023/07/17 07:31:25;;;;;;;;;;;;;;;24.73;49.41;96797.31;5102766;28;19934;-72
2023/07/17 07:33:51;;;;;;;;;;;;;;;24.78;52.32;96813.28;5102791;28;19947;-72
2023/07/17 07:36:17;;;;;;;;;;;;;;;24.66;49.79;96811.91;5104285;28;19988;-72
2023/07/17 07:38:43;;;;;;;;;;;;;;;24.61;48.63;96822.75;5103793;28;19939;-70
2023/07/17 07:41:09;;;;;;;;;;;;;;;24.67;50.09;96824.25;5103646;28;19957;-74
2023/07/17 07:43:35;;;;;;;;;;;;;;;24.53;46.53;96818.09;5104273;28;20145;-74
2023/07/17 07:46:01;;;;;;;;;;;;;;;24.45;50.25;96829.47;5102514;28;20227;-75
2023/07/17 07:48:27;;;;;;;;;;;;;;;24.46;46.77;96823.81;5104447;28;19934;-75
2023/07/17 07:50:52;;;;;;;;;;;;;;;24.54;47.57;96816.19;5104529;28;19973;-75
2023/07/17 07:53:18;;;;;;;;;;;;;;;24.62;44.98;96816.28;5086461;28;20015;-74
2023/07/17 07:55:44;;;;;;;;;;;;;;;24.65;47.06;96826.44;5103967;28;19930;-72
2023/07/17 07:58:10;;;;;;;;;;;;;;;24.66;46.72;96827.22;5103828;28;19942;-73
2023/07/17 08:00:36;;;;;;;;;;;;;;;24.67;48.30;96831.47;5102486;28;20140;-72
2023/07/17 08:03:02;;;;;;;;;;;;;;;24.64;45.84;96832.88;5106250;28;19933;-73
2023/07/17 08:05:28;;;;;;;;;;;;;;;24.63;46.68;96833.97;5107234;28;19955;-73
2023/07/17 08:07:53;;;;;;;;;;;;;;;24.60;44.65;96831.88;5107993;28;20010;-72
2023/07/17 08:10:19;;;;;;;;;;;;;;;24.64;44.67;96830.19;5107079;28;20262;-72
2023/07/17 08:12:45;;;;;;;;;;;;;;;24.61;42.68;96830.81;5105935;28;19944;-72
2023/07/17 08:15:11;;;;;;;;;;;;;;;24.66;46.13;96838.72;5107617;28;19951;-74
2023/07/17 08:17:37;;;;;;;;;;;;;;;24.77;44.77;96841.22;5107149;28;19976;-77
2023/07/17 08:20:04;;;;;;;;;;;;;;;24.88;44.64;96834.53;5107427;28;19939;-76
2023/07/17 08:22:30;;;;;;;;;;;;;;;24.76;43.57;96842.28;5106883;28;19947;-77
2023/07/17 08:24:55;;;;;;;;;;;;;;;24.80;44.63;96836.03;5106263;28;19941;-76
2023/07/17 08:27:21;;;;;;;;;;;;;;;24.96;45.50;96835.72;5088713;28;19948;-77
2023/07/17 08:29:47;;;;;;;;;;;;;;;25.07;42.28;96831.72;5106979;28;19941;-77
2023/07/17 08:32:13;;;;;;;;;;;;;;;25.10;44.53;96836.47;5106617;28;19941;-77
2023/07/17 08:34:39;;;;;;;;;;;;;;;25.21;45.14;96840.56;5106703;28;19970;-73
2023/07/17 08:37:05;;;;;;;;;;;;;;;25.12;42.88;96837.75;5106055;28;20157;-73
2023/07/17 08:39:31;;;;;;;;;;;;;;;24.92;43.09;96841.69;5107157;28;19933;-73
2023/07/17 08:41:57;;;;;;;;;;;;;;;24.80;45.24;96848.63;5088420;28;19961;-73
2023/07/17 08:44:23;;;;;;;;;;;;;;;24.89;46.08;96842.28;5106699;28;19940;-73
2023/07/17 08:46:50;;;;;;;;;;;;;;;24.97;45.04;96856.06;5106391;28;19934;-73
2023/07/17 08:49:18;;;;;;;;;;;;;;;24.96;45.34;96847.22;5106275;28;19962;-72
2023/07/17 08:51:46;;;;;;;;;;;;;;;25.04;45.51;96846.53;5107121;28;19936;-75
2023/07/17 08:54:13;;;;;;;;;;;;;;;25.20;45.90;96863.13;5105202;28;19937;-73
2023/07/17 08:56:40;;;;;;;;;;;;;;;25.44;43.50;96843.28;5105060;28;20157;-74
2023/07/17 08:59:07;;;;;;;;;;;;;;;25.41;41.64;96842.00;5106912;28;19988;-75
2023/07/17 09:01:33;;;;;;;;;;;;;;;25.25;43.18;96854.97;5106254;28;19953;-74
2023/07/17 09:03:59;;;;;;;;;;;;;;;25.00;45.10;96860.84;5105999;28;19936;-74
2023/07/17 09:06:27;;;;;;;;;;;;;;;24.75;45.08;96862.16;5105969;28;20016;-74
2023/07/17 09:08:53;;;;;;;;;;;;;;;24.65;44.86;96866.66;5105923;28;20107;-74
2023/07/17 09:11:19;;;;;;;;;;;;;;;24.88;45.82;96856.81;5106753;28;19949;-72
2023/07/17 09:13:45;;;;;;;;;;;;;;;25.07;45.31;96851.31;5105517;28;19936;-74
2023/07/17 09:16:15;;;;;;;;;;;;;;;25.27;44.29;96835.88;5105834;28;19932;-74
2023/07/17 09:18:41;;;;;;;;;;;;;;;25.45;44.17;96848.34;5105711;28;19977;-75
2023/07/17 09:21:07;;;;;;;;;;;;;;;25.45;39.95;96832.22;5105254;28;19966;-74
2023/07/17 09:23:40;;;;;;;;;;;;;;;25.49;43.22;96845.81;5105717;28;19954;-73
2023/07/17 09:26:08;;;;;;;;;;;;;;;25.58;41.92;96844.00;5105193;28;20456;-75
2023/07/17 09:28:37;;;;;;;;;;;;;;;25.62;41.26;96842.31;5105679;28;19950;-72
2023/07/17 09:31:03;;;;;;;;;;;;;;;25.79;41.42;96838.16;5105521;28;19946;-72
2023/07/17 09:33:34;;;;;;;;;;;;;;;25.83;41.57;96839.09;5105781;28;19951;-72
2023/07/17 09:36:00;;;;;;;;;;;;;;;26.05;43.27;96849.06;5106344;28;20110;-72
2023/07/17 09:38:27;;;;;;;;;;;;;;;26.21;41.15;96830.66;5105455;28;19964;-72
2023/07/17 09:40:52;;;;;;;;;;;;;;;26.30;41.19;96836.84;5105168;28;19955;-72
2023/07/17 09:43:31;;;;;;;;;;;;;;;26.31;42.17;96847.31;5105761;28;19933;-72
2023/07/17 09:45:58;;;;;;;;;;;;;;;26.05;40.27;96838.31;5104882;28;19936;-73
2023/07/17 09:48:26;;;;;;;;;;;;;;;25.92;41.37;96835.41;5105938;28;19944;-72
2023/07/17 09:50:52;;;;;;;;;;;;;;;25.83;41.43;96839.09;5105134;28;19945;-72
2023/07/17 09:53:19;;;;;;;;;;;;;;;25.60;39.21;96833.75;5105088;28;20003;-72
2023/07/17 09:55:47;;;;;;;;;;;;;;;25.46;39.54;96841.84;5104968;28;19940;-73
2023/07/17 09:58:14;;;;;;;;;;;;;;;25.59;42.12;96834.06;5104968;28;19933;-73
2023/07/17 10:00:41;;;;;;;;;;;;;;;25.75;43.18;96837.97;5104857;28;19942;-73
2023/07/17 10:03:09;;;;;;;;;;;;;;;26.00;38.34;96841.94;5103805;28;19995;-73
2023/07/17 10:05:35;;;;;;;;;;;;;;;26.24;40.25;96843.47;5105458;28;20242;-75
2023/07/17 10:08:05;;;;;;;;;;;;;;;26.36;40.77;96832.13;5104513;28;19947;-73
2023/07/17 10:10:31;;;;;;;;;;;;;;;26.45;39.94;96832.97;5104860;28;20245;-73
2023/07/17 10:12:57;;;;;;;;;;;;;;;26.52;40.93;96834.09;5104746;28;19966;-73
2023/07/17 10:15:23;;;;;;;;;;;;;;;26.64;40.03;96832.72;5105290;28;19937;-74
2023/07/17 10:17:59;;;;;;;;;;;;;;;26.69;38.61;96836.06;5103648;28;19965;-72
2023/07/17 10:20:25;;;;;;;;;;;;;;;26.62;40.39;96843.78;5104619;28;20131;-73
2023/07/17 10:22:51;;;;;;;;;;;;;;;26.73;40.31;96826.28;5104566;28;19965;-74
2023/07/17 10:25:17;;;;;;;;;;;;;;;26.91;39.34;96829.78;5104661;28;20104;-74
2023/07/17 10:27:45;;;;;;;;;;;;;;;27.10;38.29;96823.31;5104338;28;19943;-74
2023/07/17 10:30:26;;;;;;;;;;;;;;;27.17;39.34;96812.84;5104487;28;20139;-73
2023/07/17 10:33:10;;;;;;;;;;;;;;;27.28;39.82;96824.94;5105222;28;19943;-73
2023/07/17 10:35:46;;;;;;;;;;;;;;;27.34;39.67;96825.56;5103841;28;19936;-73
2023/07/17 10:38:13;;;;;;;;;;;;;;;26.98;38.22;96818.53;5103221;28;19943;-73
2023/07/17 10:40:39;;;;;;;;;;;;;;;26.88;40.19;96816.97;5104023;28;20114;-73
2023/07/17 10:43:11;;;;;;;;;;;;;;;26.98;37.75;96810.47;5104275;28;20233;-72
2023/07/17 10:45:37;;;;;;;;;;;;;;;27.22;38.12;96809.22;5105024;28;20213;-73
2023/07/17 10:48:05;;;;;;;;;;;;;;;27.31;39.97;96802.75;5103126;28;19941;-73
2023/07/17 10:50:31;;;;;;;;;;;;;;;27.35;39.05;96807.50;5103154;28;19938;-74
2023/07/17 10:53:00;;;;;;;;;;;;;;;27.27;37.67;96809.88;5104159;28;19934;-73
2023/07/17 10:55:27;;;;;;;;;;;;;;;27.36;40.56;96809.09;5104174;28;19936;-74
2023/07/17 10:57:54;;;;;;;;;;;;;;;27.50;39.55;96820.47;5104071;28;19963;-74
2023/07/17 11:00:19;;;;;;;;;;;;;;;27.61;38.92;96796.69;5104668;28;20157;-74
2023/07/17 11:02:45;;;;;;;;;;;;;;;27.69;38.67;96812.84;5103004;28;19955;-72
2023/07/17 11:05:11;;;;;;;;;;;;;;;27.61;37.86;96804.78;5103650;28;19946;-81
2023/07/17 11:07:37;;;;;;;;;;;;;;;27.39;38.46;96811.16;5086833;28;19943;-81
2023/07/17 11:10:03;;;;;;;;;;;;;;;27.25;40.37;96811.31;5085986;28;19936;-81
2023/07/17 11:12:29;;;;;;;;;;;;;;;27.38;39.20;96812.25;5102857;28;19943;-82
2023/07/17 11:14:55;;;;;;;;;;;;;;;27.57;38.53;96811.91;5103992;28;20000;-81
2023/07/17 11:17:21;;;;;;;;;;;;;;;27.78;40.56;96803.94;5103260;28;20074;-82
2023/07/17 11:19:47;;;;;;;;;;;;;;;27.83;38.32;96799.19;5103703;28;19943;-74
2023/07/17 11:22:15;;;;;;;;;;;;;;;27.99;39.41;96802.19;5102845;28;20286;-72
2023/07/17 11:24:41;;;;;;;;;;;;;;;28.12;40.82;96790.41;5086684;28;19948;-72
2023/07/17 11:27:07;;;;;;;;;;;;;;;28.09;38.35;96792.94;5103405;28;20165;-72
2023/07/17 11:29:40;;;;;;;;;;;;;;;28.17;38.26;96788.66;5103230;28;19952;-72
2023/07/17 11:32:06;;;;;;;;;;;;;;;28.14;38.85;96798.19;5085791;28;20128;-72
2023/07/17 11:34:34;;;;;;;;;;;;;;;28.25;38.60;96795.91;5102635;28;19936;-72
2023/07/17 11:37:00;;;;;;;;;;;;;;;28.05;37.99;96789.31;5103595;28;19935;-73
2023/07/17 11:39:31;;;;;;;;;;;;;;;28.02;37.17;96779.19;5107354;28;20019;-71
2023/07/17 11:41:58;;;;;;;;;;;;;;;27.90;37.98;96786.03;5108082;28;19956;-72
2023/07/17 11:44:28;;;;;;;;;;;;;;;28.05;39.03;96790.09;5089419;28;19942;-72
2023/07/17 11:46:55;;;;;;;;;;;;;;;28.10;38.23;96787.25;5107603;28;20135;-73
2023/07/17 11:49:21;;;;;;;;;;;;;;;28.11;38.98;96782.63;5108022;28;20209;-72
2023/07/17 11:51:47;;;;;;;;;;;;;;;27.91;38.19;96793.00;5107446;28;19935;-72
2023/07/17 11:54:13;;;;;;;;;;;;;;;27.84;38.77;96798.06;5107369;28;19986;-72
2023/07/17 11:56:43;;;;;;;;;;;;;;;28.06;38.97;96778.22;5107807;28;19958;-72
2023/07/17 11:59:19;;;;;;;;;;;;;;;28.31;38.44;96778.44;5106121;28;19958;-76
2023/07/17 12:01:45;;;;;;;;;;;;;;;28.54;38.37;96776.28;5106101;28;19957;-76
2023/07/17 12:04:19;;;;;;;;;;;;;;;28.81;38.05;96780.41;5107937;28;19934;-76
2023/07/17 12:06:45;;;;;;;;;;;;;;;28.77;36.49;96768.66;5106001;28;19942;-74
2023/07/17 12:09:11;;;;;;;;;;;;;;;28.73;37.98;96773.16;5107054;28;19941;-76
2023/07/17 12:11:37;;;;;;;;;;;;;;;28.81;37.94;96769.59;5089784;28;20003;-77
2023/07/17 12:14:02;;;;;;;;;;;;;;;28.84;36.99;96763.53;5105906;28;20256;-72
2023/07/17 12:16:28;;;;;;;;;;;;;;;28.81;38.37;96764.19;5106393;28;19939;-76
2023/07/17 12:18:54;;;;;;;;;;;;;;;28.82;38.37;96763.06;5105725;28;19966;-76
2023/07/17 12:21:20;;;;;;;;;;;;;;;28.91;38.09;96758.38;5106873;28;20001;-76
2023/07/17 12:23:46;;;;;;;;;;;;;;;29.04;36.77;96756.56;5105780;28;20038;-76
2023/07/17 12:26:12;;;;;;;;;;;;;;;29.05;37.31;96760.03;5107623;28;19991;-76
2023/07/17 12:28:37;;;;;;;;;;;;;;;28.89;38.68;96766.03;5105621;28;19943;-76
2023/07/17 12:31:03;;;;;;;;;;;;;;;28.91;38.09;96757.59;5106960;28;19954;-76
2023/07/17 12:33:29;;;;;;;;;;;;;;;29.02;38.81;96752.59;5106321;28;19946;-76
2023/07/17 12:35:55;;;;;;;;;;;;;;;28.90;36.35;96745.25;5106701;28;20092;-76
2023/07/17 12:38:21;;;;;;;;;;;;;;;28.90;38.35;96748.72;5107352;28;20143;-76
2023/07/17 12:40:47;;;;;;;;;;;;;;;29.05;36.83;96744.63;5107053;28;19996;-75
2023/07/17 12:43:13;;;;;;;;;;;;;;;29.09;37.28;96755.56;5106841;28;19995;-75